Terminal Aerodrome Forecast
Issued by NWS

Home | Current Version | Previous Version | Text Only | Print | Product List | Glossary On
Versions: 1 2 3 4 5 6 7 8 9 10 11 12 13 14 15 16 17 18 19 20 21 22 23 24 25 26 27 28 29 30 31 32 33
000
FTAK31 PAFA 240524
TAFAQT
TAF
PAQT 240524Z 2406/2506 08023G29KT P6SM BKN009
      TEMPO 2406/2409 SCT009
     FM240900 07020G26KT 3SM BR BKN005
     FM241200 07018G25KT 1/2SM FG OVC003
     FM241900 07018KT 4SM BR BKN005
     FM250000 04015KT 4SM BR BKN007=

USA.gov is the U.S. government's official web portal to all federal, state and local government web resources and services.